Terminal Aerodrome Forecast
Issued by NWS

Home | Current Version | Previous Version | Graphics & Text | Print | Product List | Glossary On
Versions: 1 2 3 4 5 6 7 8 9 10 11 12 13 14 15 16 17 18 19 20 21 22 23
000
FTUS43 KGRB 291900 AAA
TAFCWA
TAF AMD
KCWA 291920Z 2919/3018 16008KT P6SM BKN010
     FM292100 18008KT P6SM BKN015
     FM300100 17006KT 4SM BR VCSH SCT012 OVC035
      TEMPO 3004/3008 1SM +TSRA BR BKN012CB
     FM300800 20005KT 3SM BR OVC004 PROB30 3008/3014 1SM -SHRA BR
      OVC002
     FM301400 29006KT 5SM -SHRA BR OVC008=

USA.gov is the U.S. government's official web portal to all federal, state and local government web resources and services.